sensor_id;sensor_type;location;lat;lon;timestamp;P1;durP1;ratioP1;P2;durP2;ratioP2
1082;SDS011;530;51.448;7.238;2024-01-30T00:01:36;13.23;;;8.73;;
1082;SDS011;530;51.448;7.238;2024-01-30T00:04:02;8.93;;;8.03;;
1082;SDS011;530;51.448;7.238;2024-01-30T00:06:27;8.90;;;8.00;;
1082;SDS011;530;51.448;7.238;2024-01-30T00:08:53;9.80;;;8.00;;
1082;SDS011;530;51.448;7.238;2024-01-30T00:11:19;12.50;;;8.10;;
1082;SDS011;530;51.448;7.238;2024-01-30T00:13:45;9.57;;;8.67;;
1082;SDS011;530;51.448;7.238;2024-01-30T00:16:20;9.33;;;8.40;;
1082;SDS011;530;51.448;7.238;2024-01-30T00:18:47;10.07;;;8.37;;
1082;SDS011;530;51.448;7.238;2024-01-30T00:21:13;12.40;;;8.50;;
1082;SDS011;530;51.448;7.238;2024-01-30T00:23:39;11.47;;;8.20;;
1082;SDS011;530;51.448;7.238;2024-01-30T00:26:04;10.80;;;8.73;;
1082;SDS011;530;51.448;7.238;2024-01-30T00:28:31;8.77;;;7.73;;
1082;SDS011;530;51.448;7.238;2024-01-30T00:30:56;10.00;;;8.63;;
1082;SDS011;530;51.448;7.238;2024-01-30T00:33:22;11.67;;;9.00;;
1082;SDS011;530;51.448;7.238;2024-01-30T00:35:48;9.80;;;7.80;;
1082;SDS011;530;51.448;7.238;2024-01-30T00:38:13;11.70;;;8.60;;
1082;SDS011;530;51.448;7.238;2024-01-30T00:40:39;11.80;;;9.33;;
1082;SDS011;530;51.448;7.238;2024-01-30T00:43:05;10.90;;;8.67;;
1082;SDS011;530;51.448;7.238;2024-01-30T00:45:31;11.47;;;9.10;;
1082;SDS011;530;51.448;7.238;2024-01-30T00:47:56;9.57;;;8.67;;
1082;SDS011;530;51.448;7.238;2024-01-30T00:50:22;11.40;;;9.30;;
1082;SDS011;530;51.448;7.238;2024-01-30T00:52:48;12.37;;;9.50;;
1082;SDS011;530;51.448;7.238;2024-01-30T00:55:13;9.57;;;8.57;;
1082;SDS011;530;51.448;7.238;2024-01-30T00:57:39;12.73;;;9.50;;
1082;SDS011;530;51.448;7.238;2024-01-30T01:00:07;12.07;;;9.20;;
1082;SDS011;530;51.448;7.238;2024-01-30T01:02:37;11.47;;;9.03;;
1082;SDS011;530;51.448;7.238;2024-01-30T01:05:04;12.63;;;9.47;;
1082;SDS011;530;51.448;7.238;2024-01-30T01:07:30;12.93;;;8.90;;
1082;SDS011;530;51.448;7.238;2024-01-30T01:09:56;10.50;;;9.27;;
1082;SDS011;530;51.448;7.238;2024-01-30T01:12:21;13.03;;;9.73;;
1082;SDS011;530;51.448;7.238;2024-01-30T01:14:47;11.00;;;9.53;;
1082;SDS011;530;51.448;7.238;2024-01-30T01:17:13;10.03;;;8.80;;
1082;SDS011;530;51.448;7.238;2024-01-30T01:19:38;11.97;;;9.50;;
1082;SDS011;530;51.448;7.238;2024-01-30T01:22:04;12.20;;;9.70;;
1082;SDS011;530;51.448;7.238;2024-01-30T01:24:32;13.30;;;9.07;;
1082;SDS011;530;51.448;7.238;2024-01-30T01:26:59;15.70;;;9.70;;
1082;SDS011;530;51.448;7.238;2024-01-30T01:29:25;9.50;;;8.37;;
1082;SDS011;530;51.448;7.238;2024-01-30T01:31:56;9.60;;;8.60;;
1082;SDS011;530;51.448;7.238;2024-01-30T01:34:23;11.73;;;9.40;;
1082;SDS011;530;51.448;7.238;2024-01-30T01:36:49;12.53;;;9.60;;
1082;SDS011;530;51.448;7.238;2024-01-30T01:39:15;11.10;;;9.20;;
1082;SDS011;530;51.448;7.238;2024-01-30T01:41:41;12.13;;;9.53;;
1082;SDS011;530;51.448;7.238;2024-01-30T01:44:07;14.87;;;10.00;;
1082;SDS011;530;51.448;7.238;2024-01-30T01:46:34;10.67;;;8.53;;
1082;SDS011;530;51.448;7.238;2024-01-30T01:49:00;11.17;;;9.73;;
1082;SDS011;530;51.448;7.238;2024-01-30T01:51:28;8.90;;;7.80;;
1082;SDS011;530;51.448;7.238;2024-01-30T01:53:57;12.40;;;9.20;;
1082;SDS011;530;51.448;7.238;2024-01-30T01:56:25;11.80;;;9.23;;
1082;SDS011;530;51.448;7.238;2024-01-30T01:58:54;10.13;;;8.90;;
1082;SDS011;530;51.448;7.238;2024-01-30T02:01:20;10.87;;;9.23;;
1082;SDS011;530;51.448;7.238;2024-01-30T02:03:46;12.43;;;8.33;;
1082;SDS011;530;51.448;7.238;2024-01-30T02:06:15;10.47;;;8.40;;
1082;SDS011;530;51.448;7.238;2024-01-30T02:08:41;9.40;;;8.40;;
1082;SDS011;530;51.448;7.238;2024-01-30T02:11:07;11.23;;;8.03;;
1082;SDS011;530;51.448;7.238;2024-01-30T02:13:35;12.13;;;9.33;;
1082;SDS011;530;51.448;7.238;2024-01-30T02:16:01;11.23;;;8.67;;
1082;SDS011;530;51.448;7.238;2024-01-30T02:18:26;12.93;;;9.33;;
1082;SDS011;530;51.448;7.238;2024-01-30T02:20:53;10.70;;;9.17;;
1082;SDS011;530;51.448;7.238;2024-01-30T02:23:20;11.33;;;9.77;;
1082;SDS011;530;51.448;7.238;2024-01-30T02:25:49;9.53;;;8.47;;
1082;SDS011;530;51.448;7.238;2024-01-30T02:28:18;13.60;;;9.43;;
1082;SDS011;530;51.448;7.238;2024-01-30T02:30:44;10.87;;;8.80;;
1082;SDS011;530;51.448;7.238;2024-01-30T02:33:11;10.90;;;9.20;;
1082;SDS011;530;51.448;7.238;2024-01-30T02:35:37;10.00;;;8.40;;
1082;SDS011;530;51.448;7.238;2024-01-30T02:38:03;9.70;;;8.70;;
1082;SDS011;530;51.448;7.238;2024-01-30T02:40:29;10.40;;;8.77;;
1082;SDS011;530;51.448;7.238;2024-01-30T02:42:55;9.90;;;8.53;;
1082;SDS011;530;51.448;7.238;2024-01-30T02:45:21;11.47;;;8.20;;
1082;SDS011;530;51.448;7.238;2024-01-30T02:47:47;11.07;;;8.73;;
1082;SDS011;530;51.448;7.238;2024-01-30T02:50:12;11.27;;;8.30;;
1082;SDS011;530;51.448;7.238;2024-01-30T02:52:40;10.47;;;8.73;;
1082;SDS011;530;51.448;7.238;2024-01-30T02:55:06;10.50;;;8.40;;
1082;SDS011;530;51.448;7.238;2024-01-30T02:57:31;9.87;;;8.60;;
1082;SDS011;530;51.448;7.238;2024-01-30T02:59:57;9.90;;;8.90;;
1082;SDS011;530;51.448;7.238;2024-01-30T03:02:23;10.90;;;9.03;;
1082;SDS011;530;51.448;7.238;2024-01-30T03:04:49;9.63;;;8.63;;
1082;SDS011;530;51.448;7.238;2024-01-30T03:07:15;10.73;;;8.20;;
1082;SDS011;530;51.448;7.238;2024-01-30T03:09:43;11.40;;;8.77;;
1082;SDS011;530;51.448;7.238;2024-01-30T03:12:09;10.50;;;7.97;;
1082;SDS011;530;51.448;7.238;2024-01-30T03:14:35;9.17;;;7.97;;
1082;SDS011;530;51.448;7.238;2024-01-30T03:17:01;9.53;;;8.30;;
1082;SDS011;530;51.448;7.238;2024-01-30T03:19:27;9.77;;;8.77;;
1082;SDS011;530;51.448;7.238;2024-01-30T03:21:53;9.70;;;8.07;;
1082;SDS011;530;51.448;7.238;2024-01-30T03:24:19;10.57;;;8.67;;
1082;SDS011;530;51.448;7.238;2024-01-30T03:26:44;9.90;;;7.57;;
1082;SDS011;530;51.448;7.238;2024-01-30T03:29:10;10.70;;;8.07;;
1082;SDS011;530;51.448;7.238;2024-01-30T03:31:36;10.17;;;8.33;;
1082;SDS011;530;51.448;7.238;2024-01-30T03:34:02;10.47;;;9.20;;
1082;SDS011;530;51.448;7.238;2024-01-30T03:36:27;10.40;;;8.57;;
1082;SDS011;530;51.448;7.238;2024-01-30T03:38:53;9.40;;;8.00;;
1082;SDS011;530;51.448;7.238;2024-01-30T03:41:19;10.70;;;8.43;;
1082;SDS011;530;51.448;7.238;2024-01-30T03:43:45;12.37;;;7.90;;
1082;SDS011;530;51.448;7.238;2024-01-30T03:46:12;9.50;;;7.50;;
1082;SDS011;530;51.448;7.238;2024-01-30T03:48:38;12.77;;;8.40;;
1082;SDS011;530;51.448;7.238;2024-01-30T03:51:04;15.30;;;9.40;;
1082;SDS011;530;51.448;7.238;2024-01-30T03:53:30;9.10;;;7.77;;
1082;SDS011;530;51.448;7.238;2024-01-30T03:55:56;10.93;;;8.70;;
1082;SDS011;530;51.448;7.238;2024-01-30T03:58:21;9.80;;;8.07;;
1082;SDS011;530;51.448;7.238;2024-01-30T04:00:47;11.47;;;8.10;;
1082;SDS011;530;51.448;7.238;2024-01-30T04:03:14;10.03;;;7.93;;
1082;SDS011;530;51.448;7.238;2024-01-30T04:05:43;10.43;;;8.43;;
1082;SDS011;530;51.448;7.238;2024-01-30T04:08:09;11.47;;;7.97;;
1082;SDS011;530;51.448;7.238;2024-01-30T04:10:35;10.33;;;7.47;;
1082;SDS011;530;51.448;7.238;2024-01-30T04:13:00;10.00;;;7.97;;
1082;SDS011;530;51.448;7.238;2024-01-30T04:15:26;10.10;;;7.53;;
1082;SDS011;530;51.448;7.238;2024-01-30T04:17:56;9.60;;;7.80;;
1082;SDS011;530;51.448;7.238;2024-01-30T04:20:23;8.87;;;7.63;;
1082;SDS011;530;51.448;7.238;2024-01-30T04:22:49;8.33;;;7.10;;
1082;SDS011;530;51.448;7.238;2024-01-30T04:25:15;11.83;;;7.10;;
1082;SDS011;530;51.448;7.238;2024-01-30T04:27:41;9.90;;;7.60;;
1082;SDS011;530;51.448;7.238;2024-01-30T04:30:07;9.80;;;7.77;;
1082;SDS011;530;51.448;7.238;2024-01-30T04:32:33;8.27;;;7.43;;
1082;SDS011;530;51.448;7.238;2024-01-30T04:34:58;11.10;;;8.00;;
1082;SDS011;530;51.448;7.238;2024-01-30T04:37:24;12.97;;;8.60;;
1082;SDS011;530;51.448;7.238;2024-01-30T04:39:50;7.70;;;6.87;;
1082;SDS011;530;51.448;7.238;2024-01-30T04:42:16;9.00;;;7.60;;
1082;SDS011;530;51.448;7.238;2024-01-30T04:44:42;11.07;;;7.60;;
1082;SDS011;530;51.448;7.238;2024-01-30T04:47:08;7.90;;;7.10;;
1082;SDS011;530;51.448;7.238;2024-01-30T04:49:36;9.43;;;8.00;;
1082;SDS011;530;51.448;7.238;2024-01-30T04:52:04;9.80;;;7.50;;
1082;SDS011;530;51.448;7.238;2024-01-30T04:54:30;8.93;;;7.37;;
1082;SDS011;530;51.448;7.238;2024-01-30T04:56:55;8.73;;;7.40;;
1082;SDS011;530;51.448;7.238;2024-01-30T04:59:21;9.87;;;7.47;;
1082;SDS011;530;51.448;7.238;2024-01-30T05:01:47;8.10;;;7.30;;
1082;SDS011;530;51.448;7.238;2024-01-30T05:04:12;10.67;;;7.40;;
1082;SDS011;530;51.448;7.238;2024-01-30T05:06:38;8.90;;;7.47;;
1082;SDS011;530;51.448;7.238;2024-01-30T05:09:04;8.93;;;7.40;;
1082;SDS011;530;51.448;7.238;2024-01-30T05:11:29;8.67;;;7.50;;
1082;SDS011;530;51.448;7.238;2024-01-30T05:13:56;10.00;;;7.67;;
1082;SDS011;530;51.448;7.238;2024-01-30T05:16:21;9.73;;;6.97;;
1082;SDS011;530;51.448;7.238;2024-01-30T05:18:47;9.20;;;7.27;;
1082;SDS011;530;51.448;7.238;2024-01-30T05:21:13;7.53;;;6.83;;
1082;SDS011;530;51.448;7.238;2024-01-30T05:23:38;9.20;;;7.50;;
1082;SDS011;530;51.448;7.238;2024-01-30T05:26:05;8.83;;;6.73;;
1082;SDS011;530;51.448;7.238;2024-01-30T05:28:31;7.70;;;6.90;;
1082;SDS011;530;51.448;7.238;2024-01-30T05:30:57;10.93;;;7.63;;
1082;SDS011;530;51.448;7.238;2024-01-30T05:33:22;8.57;;;6.60;;
1082;SDS011;530;51.448;7.238;2024-01-30T05:35:48;8.13;;;6.50;;
1082;SDS011;530;51.448;7.238;2024-01-30T05:38:15;7.20;;;6.47;;
1082;SDS011;530;51.448;7.238;2024-01-30T05:40:41;8.57;;;7.10;;
1082;SDS011;530;51.448;7.238;2024-01-30T05:43:07;7.87;;;6.67;;
1082;SDS011;530;51.448;7.238;2024-01-30T05:45:33;7.83;;;7.03;;
1082;SDS011;530;51.448;7.238;2024-01-30T05:48:00;9.17;;;6.27;;
1082;SDS011;530;51.448;7.238;2024-01-30T05:50:26;7.83;;;6.60;;
1082;SDS011;530;51.448;7.238;2024-01-30T05:52:52;7.93;;;7.13;;
1082;SDS011;530;51.448;7.238;2024-01-30T05:55:18;7.73;;;6.80;;
1082;SDS011;530;51.448;7.238;2024-01-30T05:57:44;9.80;;;7.20;;
1082;SDS011;530;51.448;7.238;2024-01-30T06:00:09;7.53;;;6.30;;
1082;SDS011;530;51.448;7.238;2024-01-30T06:02:35;8.63;;;7.13;;
1082;SDS011;530;51.448;7.238;2024-01-30T06:05:01;9.60;;;7.13;;
1082;SDS011;530;51.448;7.238;2024-01-30T06:07:27;10.50;;;6.57;;
1082;SDS011;530;51.448;7.238;2024-01-30T06:09:53;9.27;;;7.10;;
1082;SDS011;530;51.448;7.238;2024-01-30T06:12:18;8.43;;;7.33;;
1082;SDS011;530;51.448;7.238;2024-01-30T06:14:44;7.57;;;6.47;;
1082;SDS011;530;51.448;7.238;2024-01-30T06:17:10;7.93;;;6.20;;
1082;SDS011;530;51.448;7.238;2024-01-30T06:19:37;6.90;;;6.20;;
1082;SDS011;530;51.448;7.238;2024-01-30T06:22:05;7.50;;;6.10;;
1082;SDS011;530;51.448;7.238;2024-01-30T06:24:31;9.23;;;6.27;;
1082;SDS011;530;51.448;7.238;2024-01-30T06:26:57;10.33;;;7.20;;
1082;SDS011;530;51.448;7.238;2024-01-30T06:29:22;7.60;;;6.30;;
1082;SDS011;530;51.448;7.238;2024-01-30T06:31:50;7.30;;;6.60;;
1082;SDS011;530;51.448;7.238;2024-01-30T06:34:15;7.40;;;6.70;;
1082;SDS011;530;51.448;7.238;2024-01-30T06:36:41;7.60;;;6.77;;
1082;SDS011;530;51.448;7.238;2024-01-30T06:39:07;8.40;;;6.50;;
1082;SDS011;530;51.448;7.238;2024-01-30T06:41:33;7.03;;;6.33;;
1082;SDS011;530;51.448;7.238;2024-01-30T06:43:58;9.47;;;6.90;;
1082;SDS011;530;51.448;7.238;2024-01-30T06:46:24;7.00;;;6.23;;
1082;SDS011;530;51.448;7.238;2024-01-30T06:48:50;8.13;;;6.20;;
1082;SDS011;530;51.448;7.238;2024-01-30T06:51:16;9.80;;;6.63;;
1082;SDS011;530;51.448;7.238;2024-01-30T06:53:41;9.50;;;6.87;;
1082;SDS011;530;51.448;7.238;2024-01-30T06:56:07;7.70;;;6.80;;
1082;SDS011;530;51.448;7.238;2024-01-30T06:58:33;7.30;;;6.60;;
1082;SDS011;530;51.448;7.238;2024-01-30T07:00:59;9.40;;;7.27;;
1082;SDS011;530;51.448;7.238;2024-01-30T07:03:24;7.87;;;6.60;;
1082;SDS011;530;51.448;7.238;2024-01-30T07:05:50;10.10;;;7.20;;
1082;SDS011;530;51.448;7.238;2024-01-30T07:08:16;8.87;;;7.30;;
1082;SDS011;530;51.448;7.238;2024-01-30T07:10:45;8.70;;;7.80;;
1082;SDS011;530;51.448;7.238;2024-01-30T07:13:12;7.90;;;6.90;;
1082;SDS011;530;51.448;7.238;2024-01-30T07:15:38;7.63;;;6.53;;
1082;SDS011;530;51.448;7.238;2024-01-30T07:18:05;9.50;;;8.40;;
1082;SDS011;530;51.448;7.238;2024-01-30T07:20:31;8.93;;;7.07;;
1082;SDS011;530;51.448;7.238;2024-01-30T07:22:57;7.60;;;6.30;;
1082;SDS011;530;51.448;7.238;2024-01-30T07:25:23;8.50;;;7.07;;
1082;SDS011;530;51.448;7.238;2024-01-30T07:27:52;8.73;;;6.30;;
1082;SDS011;530;51.448;7.238;2024-01-30T07:30:19;7.50;;;6.80;;
1082;SDS011;530;51.448;7.238;2024-01-30T07:32:45;8.67;;;7.20;;
1082;SDS011;530;51.448;7.238;2024-01-30T07:35:12;8.33;;;7.07;;
1082;SDS011;530;51.448;7.238;2024-01-30T07:37:38;8.17;;;6.27;;
1082;SDS011;530;51.448;7.238;2024-01-30T07:40:04;7.60;;;6.80;;
1082;SDS011;530;51.448;7.238;2024-01-30T07:42:31;8.60;;;6.80;;
1082;SDS011;530;51.448;7.238;2024-01-30T07:44:58;9.60;;;7.17;;
1082;SDS011;530;51.448;7.238;2024-01-30T07:47:24;7.70;;;6.33;;
1082;SDS011;530;51.448;7.238;2024-01-30T07:49:49;8.80;;;7.27;;
1082;SDS011;530;51.448;7.238;2024-01-30T07:52:16;7.70;;;7.00;;
1082;SDS011;530;51.448;7.238;2024-01-30T07:54:42;7.53;;;6.83;;
1082;SDS011;530;51.448;7.238;2024-01-30T07:57:07;11.37;;;7.10;;
1082;SDS011;530;51.448;7.238;2024-01-30T07:59:33;8.60;;;7.30;;
1082;SDS011;530;51.448;7.238;2024-01-30T08:01:58;6.93;;;6.17;;
1082;SDS011;530;51.448;7.238;2024-01-30T08:04:24;10.93;;;6.40;;
1082;SDS011;530;51.448;7.238;2024-01-30T08:06:50;8.43;;;7.07;;
1082;SDS011;530;51.448;7.238;2024-01-30T08:09:15;6.70;;;6.10;;
1082;SDS011;530;51.448;7.238;2024-01-30T08:11:41;8.50;;;7.60;;
1082;SDS011;530;51.448;7.238;2024-01-30T08:14:07;8.43;;;7.63;;
1082;SDS011;530;51.448;7.238;2024-01-30T08:16:33;7.93;;;6.33;;
1082;SDS011;530;51.448;7.238;2024-01-30T08:18:58;7.10;;;6.37;;
1082;SDS011;530;51.448;7.238;2024-01-30T08:21:24;8.73;;;6.67;;
1082;SDS011;530;51.448;7.238;2024-01-30T08:23:50;7.53;;;6.60;;
1082;SDS011;530;51.448;7.238;2024-01-30T08:26:15;8.00;;;7.20;;
1082;SDS011;530;51.448;7.238;2024-01-30T08:28:41;9.07;;;6.70;;
1082;SDS011;530;51.448;7.238;2024-01-30T08:31:07;7.70;;;6.90;;
1082;SDS011;530;51.448;7.238;2024-01-30T08:33:35;8.37;;;6.50;;
1082;SDS011;530;51.448;7.238;2024-01-30T08:36:00;9.30;;;6.97;;
1082;SDS011;530;51.448;7.238;2024-01-30T08:38:26;7.40;;;6.60;;
1082;SDS011;530;51.448;7.238;2024-01-30T08:40:52;6.97;;;6.20;;
1082;SDS011;530;51.448;7.238;2024-01-30T08:43:17;8.10;;;6.13;;
1082;SDS011;530;51.448;7.238;2024-01-30T08:45:43;7.10;;;6.27;;
1082;SDS011;530;51.448;7.238;2024-01-30T08:48:08;9.80;;;6.13;;
1082;SDS011;530;51.448;7.238;2024-01-30T08:50:34;10.10;;;6.10;;
1082;SDS011;530;51.448;7.238;2024-01-30T08:53:00;7.50;;;6.77;;
1082;SDS011;530;51.448;7.238;2024-01-30T08:55:25;8.90;;;6.17;;
1082;SDS011;530;51.448;7.238;2024-01-30T08:57:51;8.23;;;6.60;;
1082;SDS011;530;51.448;7.238;2024-01-30T09:00:18;6.70;;;6.00;;
1082;SDS011;530;51.448;7.238;2024-01-30T09:02:44;5.73;;;5.10;;
1082;SDS011;530;51.448;7.238;2024-01-30T09:05:09;7.23;;;5.83;;
1082;SDS011;530;51.448;7.238;2024-01-30T09:07:35;7.50;;;5.90;;
1082;SDS011;530;51.448;7.238;2024-01-30T09:10:01;7.20;;;6.00;;
1082;SDS011;530;51.448;7.238;2024-01-30T09:12:27;6.60;;;5.47;;
1082;SDS011;530;51.448;7.238;2024-01-30T09:14:53;7.50;;;5.57;;
1082;SDS011;530;51.448;7.238;2024-01-30T09:17:18;5.37;;;4.87;;
1082;SDS011;530;51.448;7.238;2024-01-30T09:19:46;6.33;;;5.50;;
1082;SDS011;530;51.448;7.238;2024-01-30T09:22:11;6.90;;;5.40;;
1082;SDS011;530;51.448;7.238;2024-01-30T09:24:37;6.53;;;5.53;;
1082;SDS011;530;51.448;7.238;2024-01-30T09:27:03;7.00;;;5.40;;
1082;SDS011;530;51.448;7.238;2024-01-30T09:29:28;6.97;;;4.90;;
1082;SDS011;530;51.448;7.238;2024-01-30T09:31:54;6.87;;;4.90;;
1082;SDS011;530;51.448;7.238;2024-01-30T09:34:20;5.70;;;5.20;;
1082;SDS011;530;51.448;7.238;2024-01-30T09:36:45;6.80;;;5.60;;
1082;SDS011;530;51.448;7.238;2024-01-30T09:39:11;6.03;;;5.43;;
1082;SDS011;530;51.448;7.238;2024-01-30T09:41:41;6.40;;;5.80;;
1082;SDS011;530;51.448;7.238;2024-01-30T09:44:13;6.20;;;5.60;;
1082;SDS011;530;51.448;7.238;2024-01-30T09:46:42;6.20;;;5.60;;
1082;SDS011;530;51.448;7.238;2024-01-30T09:49:08;7.50;;;5.60;;
1082;SDS011;530;51.448;7.238;2024-01-30T09:51:34;9.60;;;6.60;;
1082;SDS011;530;51.448;7.238;2024-01-30T09:54:01;6.60;;;5.90;;
1082;SDS011;530;51.448;7.238;2024-01-30T09:56:28;5.67;;;4.70;;
1082;SDS011;530;51.448;7.238;2024-01-30T09:58:54;8.83;;;5.57;;
1082;SDS011;530;51.448;7.238;2024-01-30T10:01:19;7.37;;;5.70;;
1082;SDS011;530;51.448;7.238;2024-01-30T10:03:45;6.63;;;5.20;;
1082;SDS011;530;51.448;7.238;2024-01-30T10:06:11;8.87;;;5.40;;
1082;SDS011;530;51.448;7.238;2024-01-30T10:08:37;6.80;;;5.27;;
1082;SDS011;530;51.448;7.238;2024-01-30T10:11:03;5.83;;;4.90;;
1082;SDS011;530;51.448;7.238;2024-01-30T10:13:29;6.10;;;5.03;;
1082;SDS011;530;51.448;7.238;2024-01-30T10:15:54;5.70;;;5.07;;
1082;SDS011;530;51.448;7.238;2024-01-30T10:18:22;6.50;;;4.97;;
1082;SDS011;530;51.448;7.238;2024-01-30T10:20:48;10.93;;;6.07;;
1082;SDS011;530;51.448;7.238;2024-01-30T10:23:14;6.33;;;4.97;;
1082;SDS011;530;51.448;7.238;2024-01-30T10:25:40;6.77;;;5.17;;
1082;SDS011;530;51.448;7.238;2024-01-30T10:28:06;5.83;;;5.10;;
1082;SDS011;530;51.448;7.238;2024-01-30T10:30:32;7.80;;;5.53;;
1082;SDS011;530;51.448;7.238;2024-01-30T10:32:58;8.80;;;5.73;;
1082;SDS011;530;51.448;7.238;2024-01-30T10:35:23;5.50;;;5.00;;
1082;SDS011;530;51.448;7.238;2024-01-30T10:37:49;6.13;;;5.53;;
1082;SDS011;530;51.448;7.238;2024-01-30T10:40:15;9.33;;;6.13;;
1082;SDS011;530;51.448;7.238;2024-01-30T10:42:44;6.37;;;5.07;;
1082;SDS011;530;51.448;7.238;2024-01-30T10:45:11;9.10;;;5.57;;
1082;SDS011;530;51.448;7.238;2024-01-30T10:47:39;9.17;;;5.73;;
1082;SDS011;530;51.448;7.238;2024-01-30T10:50:07;7.73;;;5.87;;
1082;SDS011;530;51.448;7.238;2024-01-30T10:52:34;6.30;;;5.00;;
1082;SDS011;530;51.448;7.238;2024-01-30T10:55:00;6.23;;;5.50;;
1082;SDS011;530;51.448;7.238;2024-01-30T10:57:26;6.83;;;5.40;;
1082;SDS011;530;51.448;7.238;2024-01-30T10:59:59;6.10;;;5.17;;
1082;SDS011;530;51.448;7.238;2024-01-30T11:02:26;9.30;;;6.80;;
1082;SDS011;530;51.448;7.238;2024-01-30T11:04:59;6.47;;;5.80;;
1082;SDS011;530;51.448;7.238;2024-01-30T11:07:26;5.60;;;4.87;;
1082;SDS011;530;51.448;7.238;2024-01-30T11:09:59;7.50;;;5.73;;
1082;SDS011;530;51.448;7.238;2024-01-30T11:12:28;9.80;;;6.73;;
1082;SDS011;530;51.448;7.238;2024-01-30T11:15:01;9.07;;;6.43;;
1082;SDS011;530;51.448;7.238;2024-01-30T11:17:39;12.60;;;6.63;;
1082;SDS011;530;51.448;7.238;2024-01-30T11:20:25;10.90;;;6.83;;
1082;SDS011;530;51.448;7.238;2024-01-30T11:22:54;8.60;;;6.40;;
1082;SDS011;530;51.448;7.238;2024-01-30T11:25:21;9.10;;;5.70;;
1082;SDS011;530;51.448;7.238;2024-01-30T11:27:49;7.90;;;5.87;;
1082;SDS011;530;51.448;7.238;2024-01-30T11:30:25;9.67;;;5.73;;
1082;SDS011;530;51.448;7.238;2024-01-30T11:32:59;7.80;;;6.30;;
1082;SDS011;530;51.448;7.238;2024-01-30T11:35:40;6.83;;;5.80;;
1082;SDS011;530;51.448;7.238;2024-01-30T11:38:06;8.50;;;5.77;;
1082;SDS011;530;51.448;7.238;2024-01-30T11:40:33;9.30;;;5.97;;
1082;SDS011;530;51.448;7.238;2024-01-30T11:43:00;8.63;;;6.33;;
1082;SDS011;530;51.448;7.238;2024-01-30T11:45:28;8.03;;;6.37;;
1082;SDS011;530;51.448;7.238;2024-01-30T11:47:54;9.13;;;6.07;;
1082;SDS011;530;51.448;7.238;2024-01-30T11:50:20;10.20;;;5.47;;
1082;SDS011;530;51.448;7.238;2024-01-30T11:52:46;10.80;;;5.57;;
1082;SDS011;530;51.448;7.238;2024-01-30T11:55:14;8.53;;;5.97;;
1082;SDS011;530;51.448;7.238;2024-01-30T11:57:40;8.83;;;5.87;;
1082;SDS011;530;51.448;7.238;2024-01-30T12:00:06;14.10;;;10.43;;
1082;SDS011;530;51.448;7.238;2024-01-30T12:02:39;16.47;;;11.50;;
1082;SDS011;530;51.448;7.238;2024-01-30T12:05:05;14.07;;;8.93;;
1082;SDS011;530;51.448;7.238;2024-01-30T12:07:32;11.20;;;7.23;;
1082;SDS011;530;51.448;7.238;2024-01-30T12:09:57;9.40;;;7.00;;
1082;SDS011;530;51.448;7.238;2024-01-30T12:12:27;12.10;;;8.00;;
1082;SDS011;530;51.448;7.238;2024-01-30T12:14:53;11.20;;;6.43;;
1082;SDS011;530;51.448;7.238;2024-01-30T12:17:29;10.30;;;6.10;;
1082;SDS011;530;51.448;7.238;2024-01-30T12:20:06;9.53;;;6.97;;
1082;SDS011;530;51.448;7.238;2024-01-30T12:22:52;8.20;;;6.27;;
1082;SDS011;530;51.448;7.238;2024-01-30T12:25:20;12.23;;;7.87;;
1082;SDS011;530;51.448;7.238;2024-01-30T12:27:46;8.13;;;7.03;;
1082;SDS011;530;51.448;7.238;2024-01-30T12:30:16;9.67;;;7.40;;
1082;SDS011;530;51.448;7.238;2024-01-30T12:32:43;17.33;;;6.67;;
1082;SDS011;530;51.448;7.238;2024-01-30T12:35:12;10.10;;;7.10;;
1082;SDS011;530;51.448;7.238;2024-01-30T12:37:42;11.93;;;7.83;;
1082;SDS011;530;51.448;7.238;2024-01-30T12:40:09;11.43;;;8.53;;
1082;SDS011;530;51.448;7.238;2024-01-30T12:42:36;15.13;;;8.80;;
1082;SDS011;530;51.448;7.238;2024-01-30T12:45:03;12.00;;;8.37;;
1082;SDS011;530;51.448;7.238;2024-01-30T12:47:29;10.63;;;7.40;;
1082;SDS011;530;51.448;7.238;2024-01-30T12:49:55;9.30;;;6.97;;
1082;SDS011;530;51.448;7.238;2024-01-30T12:52:21;10.00;;;7.50;;
1082;SDS011;530;51.448;7.238;2024-01-30T12:54:48;11.10;;;7.13;;
1082;SDS011;530;51.448;7.238;2024-01-30T12:57:14;10.27;;;8.13;;
1082;SDS011;530;51.448;7.238;2024-01-30T12:59:41;11.57;;;6.90;;
1082;SDS011;530;51.448;7.238;2024-01-30T13:02:07;12.30;;;6.97;;
1082;SDS011;530;51.448;7.238;2024-01-30T13:04:34;10.00;;;7.47;;
1082;SDS011;530;51.448;7.238;2024-01-30T13:07:00;11.07;;;7.47;;
1082;SDS011;530;51.448;7.238;2024-01-30T13:09:25;9.63;;;7.80;;
1082;SDS011;530;51.448;7.238;2024-01-30T13:11:51;12.20;;;7.83;;
1082;SDS011;530;51.448;7.238;2024-01-30T13:14:17;10.27;;;7.90;;
1082;SDS011;530;51.448;7.238;2024-01-30T13:16:43;10.03;;;7.13;;
1082;SDS011;530;51.448;7.238;2024-01-30T13:19:09;10.00;;;6.50;;
1082;SDS011;530;51.448;7.238;2024-01-30T13:21:34;9.27;;;7.17;;
1082;SDS011;530;51.448;7.238;2024-01-30T13:24:00;11.03;;;7.50;;
1082;SDS011;530;51.448;7.238;2024-01-30T13:26:26;8.90;;;6.50;;
1082;SDS011;530;51.448;7.238;2024-01-30T13:28:51;8.70;;;7.53;;
1082;SDS011;530;51.448;7.238;2024-01-30T13:31:17;11.77;;;7.70;;
1082;SDS011;530;51.448;7.238;2024-01-30T13:33:44;10.57;;;7.70;;
1082;SDS011;530;51.448;7.238;2024-01-30T13:36:10;10.53;;;7.53;;
1082;SDS011;530;51.448;7.238;2024-01-30T13:38:37;10.03;;;7.50;;
1082;SDS011;530;51.448;7.238;2024-01-30T13:41:03;10.90;;;8.50;;
1082;SDS011;530;51.448;7.238;2024-01-30T13:43:28;11.77;;;7.83;;
1082;SDS011;530;51.448;7.238;2024-01-30T13:45:54;11.30;;;8.27;;
1082;SDS011;530;51.448;7.238;2024-01-30T13:48:20;10.87;;;7.00;;
1082;SDS011;530;51.448;7.238;2024-01-30T13:50:46;11.70;;;8.07;;
1082;SDS011;530;51.448;7.238;2024-01-30T13:53:12;12.43;;;7.53;;
1082;SDS011;530;51.448;7.238;2024-01-30T13:55:38;8.77;;;7.20;;
1082;SDS011;530;51.448;7.238;2024-01-30T13:58:07;12.13;;;8.30;;
1082;SDS011;530;51.448;7.238;2024-01-30T14:00:33;14.43;;;8.17;;
1082;SDS011;530;51.448;7.238;2024-01-30T14:02:59;11.73;;;7.73;;
1082;SDS011;530;51.448;7.238;2024-01-30T14:05:25;11.47;;;8.20;;
1082;SDS011;530;51.448;7.238;2024-01-30T14:07:51;10.10;;;7.33;;
1082;SDS011;530;51.448;7.238;2024-01-30T14:10:17;9.97;;;7.57;;
1082;SDS011;530;51.448;7.238;2024-01-30T14:12:43;10.00;;;7.83;;
1082;SDS011;530;51.448;7.238;2024-01-30T14:15:09;14.00;;;7.30;;
1082;SDS011;530;51.448;7.238;2024-01-30T14:17:36;10.83;;;7.40;;
1082;SDS011;530;51.448;7.238;2024-01-30T14:20:02;11.10;;;8.03;;
1082;SDS011;530;51.448;7.238;2024-01-30T14:22:29;10.43;;;7.93;;
1082;SDS011;530;51.448;7.238;2024-01-30T14:24:55;9.13;;;7.90;;
1082;SDS011;530;51.448;7.238;2024-01-30T14:27:21;11.17;;;7.90;;
1082;SDS011;530;51.448;7.238;2024-01-30T14:29:47;9.37;;;7.67;;
1082;SDS011;530;51.448;7.238;2024-01-30T14:32:13;10.40;;;7.70;;
1082;SDS011;530;51.448;7.238;2024-01-30T14:34:38;9.00;;;7.83;;
1082;SDS011;530;51.448;7.238;2024-01-30T14:37:04;8.47;;;7.57;;
1082;SDS011;530;51.448;7.238;2024-01-30T14:39:30;10.83;;;8.17;;
1082;SDS011;530;51.448;7.238;2024-01-30T14:41:56;13.40;;;7.70;;
1082;SDS011;530;51.448;7.238;2024-01-30T14:44:22;13.70;;;7.93;;
1082;SDS011;530;51.448;7.238;2024-01-30T14:46:48;9.73;;;8.73;;
1082;SDS011;530;51.448;7.238;2024-01-30T14:49:14;11.07;;;8.03;;
1082;SDS011;530;51.448;7.238;2024-01-30T14:51:40;10.80;;;8.10;;
1082;SDS011;530;51.448;7.238;2024-01-30T14:54:06;10.87;;;8.27;;
1082;SDS011;530;51.448;7.238;2024-01-30T14:56:32;14.50;;;7.60;;
1082;SDS011;530;51.448;7.238;2024-01-30T14:58:58;12.10;;;8.60;;
1082;SDS011;530;51.448;7.238;2024-01-30T15:01:24;11.53;;;8.50;;
1082;SDS011;530;51.448;7.238;2024-01-30T15:03:50;8.20;;;7.40;;
1082;SDS011;530;51.448;7.238;2024-01-30T15:06:20;10.53;;;8.40;;
1082;SDS011;530;51.448;7.238;2024-01-30T15:08:49;10.13;;;8.03;;
1082;SDS011;530;51.448;7.238;2024-01-30T15:11:15;11.77;;;8.50;;
1082;SDS011;530;51.448;7.238;2024-01-30T15:13:41;11.93;;;7.60;;
1082;SDS011;530;51.448;7.238;2024-01-30T15:16:06;9.97;;;7.43;;
1082;SDS011;530;51.448;7.238;2024-01-30T15:18:33;12.40;;;7.13;;
1082;SDS011;530;51.448;7.238;2024-01-30T15:20:58;8.93;;;8.03;;